sensor_id;sensor_type;location;lat;lon;timestamp;temperature;humidity
21193;DHT22;10754;51.106;7.164;2023-02-01T00:01:54;8.70;1.00
21193;DHT22;10754;51.106;7.164;2023-02-01T00:04:19;8.60;1.00
21193;DHT22;10754;51.106;7.164;2023-02-01T00:06:45;8.70;1.00
21193;DHT22;10754;51.106;7.164;2023-02-01T00:09:10;8.70;1.00
21193;DHT22;10754;51.106;7.164;2023-02-01T00:11:36;8.60;1.00
21193;DHT22;10754;51.106;7.164;2023-02-01T00:14:01;8.60;1.00
21193;DHT22;10754;51.106;7.164;2023-02-01T00:16:28;8.60;1.00
21193;DHT22;10754;51.106;7.164;2023-02-01T00:19:03;8.60;1.00
21193;DHT22;10754;51.106;7.164;2023-02-01T00:21:31;8.60;1.00
21193;DHT22;10754;51.106;7.164;2023-02-01T00:23:57;8.70;1.00
21193;DHT22;10754;51.106;7.164;2023-02-01T00:26:34;8.60;1.00
21193;DHT22;10754;51.106;7.164;2023-02-01T00:29:01;8.60;1.00
21193;DHT22;10754;51.106;7.164;2023-02-01T00:31:27;8.60;1.00
21193;DHT22;10754;51.106;7.164;2023-02-01T00:33:52;8.70;1.00
21193;DHT22;10754;51.106;7.164;2023-02-01T00:36:18;8.70;1.00
21193;DHT22;10754;51.106;7.164;2023-02-01T00:38:44;8.60;1.00
21193;DHT22;10754;51.106;7.164;2023-02-01T00:41:12;8.60;1.00
21193;DHT22;10754;51.106;7.164;2023-02-01T00:43:38;8.60;1.00
21193;DHT22;10754;51.106;7.164;2023-02-01T00:46:03;8.60;1.00
21193;DHT22;10754;51.106;7.164;2023-02-01T00:48:29;8.60;1.00
21193;DHT22;10754;51.106;7.164;2023-02-01T00:50:59;8.60;1.00
21193;DHT22;10754;51.106;7.164;2023-02-01T00:53:25;8.80;1.00
21193;DHT22;10754;51.106;7.164;2023-02-01T00:55:51;8.80;1.00
21193;DHT22;10754;51.106;7.164;2023-02-01T00:58:16;8.60;1.00
21193;DHT22;10754;51.106;7.164;2023-02-01T01:00:42;8.70;1.00
21193;DHT22;10754;51.106;7.164;2023-02-01T01:03:07;8.60;1.00
21193;DHT22;10754;51.106;7.164;2023-02-01T01:05:49;8.50;1.00
21193;DHT22;10754;51.106;7.164;2023-02-01T01:08:16;8.70;1.00
21193;DHT22;10754;51.106;7.164;2023-02-01T01:10:42;8.80;1.00
21193;DHT22;10754;51.106;7.164;2023-02-01T01:13:08;8.90;1.00
21193;DHT22;10754;51.106;7.164;2023-02-01T01:15:40;8.80;1.00
21193;DHT22;10754;51.106;7.164;2023-02-01T01:18:06;8.60;1.00
21193;DHT22;10754;51.106;7.164;2023-02-01T01:20:35;8.50;1.00
21193;DHT22;10754;51.106;7.164;2023-02-01T01:23:01;8.50;1.00
21193;DHT22;10754;51.106;7.164;2023-02-01T01:25:27;8.40;1.00
21193;DHT22;10754;51.106;7.164;2023-02-01T01:27:53;8.30;1.00
21193;DHT22;10754;51.106;7.164;2023-02-01T01:30:18;8.30;1.00
21193;DHT22;10754;51.106;7.164;2023-02-01T01:32:44;8.50;1.00
21193;DHT22;10754;51.106;7.164;2023-02-01T01:35:10;8.50;1.00
21193;DHT22;10754;51.106;7.164;2023-02-01T01:37:36;8.50;1.00
21193;DHT22;10754;51.106;7.164;2023-02-01T01:40:03;8.60;1.00
21193;DHT22;10754;51.106;7.164;2023-02-01T01:42:28;8.50;1.00
21193;DHT22;10754;51.106;7.164;2023-02-01T01:47:34;8.60;1.00
21193;DHT22;10754;51.106;7.164;2023-02-01T01:50:02;8.60;1.00
21193;DHT22;10754;51.106;7.164;2023-02-01T01:52:29;8.50;1.00
21193;DHT22;10754;51.106;7.164;2023-02-01T01:54:54;8.50;1.00
21193;DHT22;10754;51.106;7.164;2023-02-01T01:57:29;8.50;1.00
21193;DHT22;10754;51.106;7.164;2023-02-01T02:00:05;8.40;1.00
21193;DHT22;10754;51.106;7.164;2023-02-01T02:02:33;8.30;1.00
21193;DHT22;10754;51.106;7.164;2023-02-01T02:04:59;8.20;1.00
21193;DHT22;10754;51.106;7.164;2023-02-01T02:07:28;8.20;1.00
21193;DHT22;10754;51.106;7.164;2023-02-01T02:09:55;8.40;1.00
21193;DHT22;10754;51.106;7.164;2023-02-01T02:12:21;8.30;1.00
21193;DHT22;10754;51.106;7.164;2023-02-01T02:14:46;8.30;1.00
21193;DHT22;10754;51.106;7.164;2023-02-01T02:17:19;8.30;1.00
21193;DHT22;10754;51.106;7.164;2023-02-01T02:31:30;8.20;1.00
21193;DHT22;10754;51.106;7.164;2023-02-01T02:40:01;8.20;1.00
21193;DHT22;10754;51.106;7.164;2023-02-01T02:42:53;8.10;1.00
21193;DHT22;10754;51.106;7.164;2023-02-01T02:45:52;8.20;1.00
21193;DHT22;10754;51.106;7.164;2023-02-01T02:48:44;8.20;1.00
21193;DHT22;10754;51.106;7.164;2023-02-01T02:51:38;8.20;1.00
21193;DHT22;10754;51.106;7.164;2023-02-01T02:54:29;8.10;1.00
21193;DHT22;10754;51.106;7.164;2023-02-01T02:57:20;8.00;1.00
21193;DHT22;10754;51.106;7.164;2023-02-01T03:00:09;8.00;1.00
21193;DHT22;10754;51.106;7.164;2023-02-01T03:02:54;8.00;1.00
21193;DHT22;10754;51.106;7.164;2023-02-01T03:05:45;8.00;1.00
21193;DHT22;10754;51.106;7.164;2023-02-01T03:08:20;8.00;1.00
21193;DHT22;10754;51.106;7.164;2023-02-01T03:10:57;8.20;1.00
21193;DHT22;10754;51.106;7.164;2023-02-01T03:13:43;8.30;1.00
21193;DHT22;10754;51.106;7.164;2023-02-01T03:16:40;8.30;1.00
21193;DHT22;10754;51.106;7.164;2023-02-01T03:19:31;8.20;1.00
21193;DHT22;10754;51.106;7.164;2023-02-01T03:22:05;8.20;1.00
21193;DHT22;10754;51.106;7.164;2023-02-01T03:24:37;8.10;1.00
21193;DHT22;10754;51.106;7.164;2023-02-01T03:32:20;8.10;1.00
21193;DHT22;10754;51.106;7.164;2023-02-01T03:34:46;8.10;1.00
21193;DHT22;10754;51.106;7.164;2023-02-01T03:37:21;8.10;1.00
21193;DHT22;10754;51.106;7.164;2023-02-01T03:40:01;8.10;1.00
21193;DHT22;10754;51.106;7.164;2023-02-01T03:42:38;8.20;1.00
21193;DHT22;10754;51.106;7.164;2023-02-01T03:47:43;8.20;1.00
21193;DHT22;10754;51.106;7.164;2023-02-01T03:50:18;8.10;1.00
21193;DHT22;10754;51.106;7.164;2023-02-01T03:52:48;8.20;1.00
21193;DHT22;10754;51.106;7.164;2023-02-01T03:55:19;8.40;1.00
21193;DHT22;10754;51.106;7.164;2023-02-01T03:57:55;8.40;1.00
21193;DHT22;10754;51.106;7.164;2023-02-01T04:00:24;8.30;1.00
21193;DHT22;10754;51.106;7.164;2023-02-01T04:02:51;8.20;1.00
21193;DHT22;10754;51.106;7.164;2023-02-01T04:05:17;8.30;1.00
21193;DHT22;10754;51.106;7.164;2023-02-01T04:07:43;8.20;1.00
21193;DHT22;10754;51.106;7.164;2023-02-01T04:10:09;8.20;1.00
21193;DHT22;10754;51.106;7.164;2023-02-01T04:12:35;8.20;1.00
21193;DHT22;10754;51.106;7.164;2023-02-01T04:15:00;8.20;1.00
21193;DHT22;10754;51.106;7.164;2023-02-01T04:17:26;8.20;1.00
21193;DHT22;10754;51.106;7.164;2023-02-01T04:19:51;8.20;1.00
21193;DHT22;10754;51.106;7.164;2023-02-01T04:22:17;8.20;1.00
21193;DHT22;10754;51.106;7.164;2023-02-01T04:24:42;8.40;1.00
21193;DHT22;10754;51.106;7.164;2023-02-01T04:27:08;8.20;1.00
21193;DHT22;10754;51.106;7.164;2023-02-01T04:29:33;8.20;1.00
21193;DHT22;10754;51.106;7.164;2023-02-01T04:31:59;8.20;1.00
21193;DHT22;10754;51.106;7.164;2023-02-01T04:34:24;8.30;1.00
21193;DHT22;10754;51.106;7.164;2023-02-01T04:36:50;8.40;1.00
21193;DHT22;10754;51.106;7.164;2023-02-01T04:39:16;8.40;1.00
21193;DHT22;10754;51.106;7.164;2023-02-01T04:41:42;8.50;1.00
21193;DHT22;10754;51.106;7.164;2023-02-01T04:44:14;9.10;1.00
21193;DHT22;10754;51.106;7.164;2023-02-01T04:46:40;8.90;1.00
21193;DHT22;10754;51.106;7.164;2023-02-01T04:49:05;8.80;1.00
21193;DHT22;10754;51.106;7.164;2023-02-01T04:51:31;8.70;1.00
21193;DHT22;10754;51.106;7.164;2023-02-01T04:53:56;8.40;1.00
21193;DHT22;10754;51.106;7.164;2023-02-01T04:56:22;8.50;1.00
21193;DHT22;10754;51.106;7.164;2023-02-01T04:58:47;8.40;1.00
21193;DHT22;10754;51.106;7.164;2023-02-01T05:01:13;8.40;1.00
21193;DHT22;10754;51.106;7.164;2023-02-01T05:03:38;8.30;1.00
21193;DHT22;10754;51.106;7.164;2023-02-01T05:06:04;8.30;1.00
21193;DHT22;10754;51.106;7.164;2023-02-01T05:08:30;8.30;1.00
21193;DHT22;10754;51.106;7.164;2023-02-01T05:10:56;8.30;1.00
21193;DHT22;10754;51.106;7.164;2023-02-01T05:13:22;8.20;1.00
21193;DHT22;10754;51.106;7.164;2023-02-01T05:16:06;8.20;1.00
21193;DHT22;10754;51.106;7.164;2023-02-01T05:18:31;8.20;1.00
21193;DHT22;10754;51.106;7.164;2023-02-01T05:20:57;8.20;1.00
21193;DHT22;10754;51.106;7.164;2023-02-01T05:23:22;8.10;1.00
21193;DHT22;10754;51.106;7.164;2023-02-01T05:25:48;8.10;1.00
21193;DHT22;10754;51.106;7.164;2023-02-01T05:28:14;8.10;1.00
21193;DHT22;10754;51.106;7.164;2023-02-01T05:30:39;8.30;1.00
21193;DHT22;10754;51.106;7.164;2023-02-01T05:33:05;8.10;1.00
21193;DHT22;10754;51.106;7.164;2023-02-01T05:35:30;8.00;1.00
21193;DHT22;10754;51.106;7.164;2023-02-01T05:37:56;8.00;1.00
21193;DHT22;10754;51.106;7.164;2023-02-01T05:40:22;8.00;1.00
21193;DHT22;10754;51.106;7.164;2023-02-01T05:42:47;8.00;1.00
21193;DHT22;10754;51.106;7.164;2023-02-01T05:45:13;7.90;1.00
21193;DHT22;10754;51.106;7.164;2023-02-01T05:47:39;7.90;1.00
21193;DHT22;10754;51.106;7.164;2023-02-01T05:50:05;7.90;1.00
21193;DHT22;10754;51.106;7.164;2023-02-01T05:52:31;7.80;1.00
21193;DHT22;10754;51.106;7.164;2023-02-01T05:54:57;7.90;1.00
21193;DHT22;10754;51.106;7.164;2023-02-01T05:57:23;7.90;1.00
21193;DHT22;10754;51.106;7.164;2023-02-01T05:59:48;8.00;1.00
21193;DHT22;10754;51.106;7.164;2023-02-01T06:02:15;8.10;1.00
21193;DHT22;10754;51.106;7.164;2023-02-01T06:04:41;8.10;1.00
21193;DHT22;10754;51.106;7.164;2023-02-01T06:07:07;8.20;1.00
21193;DHT22;10754;51.106;7.164;2023-02-01T06:09:34;8.10;1.00
21193;DHT22;10754;51.106;7.164;2023-02-01T06:12:00;8.00;1.00
21193;DHT22;10754;51.106;7.164;2023-02-01T06:14:26;8.00;1.00
21193;DHT22;10754;51.106;7.164;2023-02-01T06:16:53;8.10;1.00
21193;DHT22;10754;51.106;7.164;2023-02-01T06:19:18;8.10;1.00
21193;DHT22;10754;51.106;7.164;2023-02-01T06:21:44;8.00;1.00
21193;DHT22;10754;51.106;7.164;2023-02-01T06:24:10;8.10;1.00
21193;DHT22;10754;51.106;7.164;2023-02-01T06:26:35;8.00;1.00
21193;DHT22;10754;51.106;7.164;2023-02-01T06:29:01;8.10;1.00
21193;DHT22;10754;51.106;7.164;2023-02-01T06:31:26;8.10;1.00
21193;DHT22;10754;51.106;7.164;2023-02-01T06:33:52;8.10;1.00
21193;DHT22;10754;51.106;7.164;2023-02-01T06:36:19;8.10;1.00
21193;DHT22;10754;51.106;7.164;2023-02-01T06:38:47;8.10;1.00
21193;DHT22;10754;51.106;7.164;2023-02-01T06:41:12;8.00;1.00
21193;DHT22;10754;51.106;7.164;2023-02-01T06:43:38;8.00;1.00
21193;DHT22;10754;51.106;7.164;2023-02-01T06:46:06;8.10;1.00
21193;DHT22;10754;51.106;7.164;2023-02-01T06:48:32;7.90;1.00
21193;DHT22;10754;51.106;7.164;2023-02-01T06:50:58;8.20;1.00
21193;DHT22;10754;51.106;7.164;2023-02-01T06:53:24;8.20;1.00
21193;DHT22;10754;51.106;7.164;2023-02-01T06:55:58;8.30;1.00
21193;DHT22;10754;51.106;7.164;2023-02-01T06:58:24;8.40;1.00
21193;DHT22;10754;51.106;7.164;2023-02-01T07:00:50;8.50;1.00
21193;DHT22;10754;51.106;7.164;2023-02-01T07:03:16;8.30;1.00
21193;DHT22;10754;51.106;7.164;2023-02-01T07:05:42;8.40;1.00
21193;DHT22;10754;51.106;7.164;2023-02-01T07:08:07;8.40;1.00
21193;DHT22;10754;51.106;7.164;2023-02-01T07:10:34;8.40;1.00
21193;DHT22;10754;51.106;7.164;2023-02-01T07:13:01;8.40;1.00
21193;DHT22;10754;51.106;7.164;2023-02-01T07:15:26;8.30;1.00
21193;DHT22;10754;51.106;7.164;2023-02-01T07:17:54;8.40;1.00
21193;DHT22;10754;51.106;7.164;2023-02-01T07:20:20;8.40;1.00
21193;DHT22;10754;51.106;7.164;2023-02-01T07:22:46;8.40;1.00
21193;DHT22;10754;51.106;7.164;2023-02-01T07:25:11;8.40;1.00
21193;DHT22;10754;51.106;7.164;2023-02-01T07:27:37;8.50;1.00
21193;DHT22;10754;51.106;7.164;2023-02-01T07:30:06;8.50;1.00
21193;DHT22;10754;51.106;7.164;2023-02-01T07:32:32;8.70;1.00
21193;DHT22;10754;51.106;7.164;2023-02-01T07:34:58;8.60;1.00
21193;DHT22;10754;51.106;7.164;2023-02-01T07:37:24;8.50;1.00
21193;DHT22;10754;51.106;7.164;2023-02-01T07:39:51;8.50;1.00
21193;DHT22;10754;51.106;7.164;2023-02-01T07:42:17;8.40;1.00
21193;DHT22;10754;51.106;7.164;2023-02-01T07:44:42;8.50;1.00
21193;DHT22;10754;51.106;7.164;2023-02-01T07:47:08;8.60;1.00
21193;DHT22;10754;51.106;7.164;2023-02-01T07:49:33;8.60;1.00
21193;DHT22;10754;51.106;7.164;2023-02-01T07:51:59;8.80;1.00
21193;DHT22;10754;51.106;7.164;2023-02-01T07:54:24;8.70;1.00
21193;DHT22;10754;51.106;7.164;2023-02-01T07:56:49;8.70;1.00
21193;DHT22;10754;51.106;7.164;2023-02-01T07:59:15;8.60;1.00
21193;DHT22;10754;51.106;7.164;2023-02-01T08:01:41;8.50;1.00
21193;DHT22;10754;51.106;7.164;2023-02-01T08:04:09;8.60;1.00
21193;DHT22;10754;51.106;7.164;2023-02-01T08:06:35;8.60;1.00
21193;DHT22;10754;51.106;7.164;2023-02-01T08:09:02;8.60;1.00
21193;DHT22;10754;51.106;7.164;2023-02-01T08:11:27;8.60;1.00
21193;DHT22;10754;51.106;7.164;2023-02-01T08:13:53;8.60;1.00
21193;DHT22;10754;51.106;7.164;2023-02-01T08:16:20;8.60;1.00
21193;DHT22;10754;51.106;7.164;2023-02-01T08:18:46;8.60;1.00
21193;DHT22;10754;51.106;7.164;2023-02-01T08:21:14;8.70;1.00
21193;DHT22;10754;51.106;7.164;2023-02-01T08:23:41;8.70;1.00
21193;DHT22;10754;51.106;7.164;2023-02-01T08:26:08;8.80;1.00
21193;DHT22;10754;51.106;7.164;2023-02-01T08:28:34;8.90;1.00
21193;DHT22;10754;51.106;7.164;2023-02-01T08:31:07;8.90;1.00
21193;DHT22;10754;51.106;7.164;2023-02-01T08:33:33;9.10;1.00
21193;DHT22;10754;51.106;7.164;2023-02-01T08:36:02;9.10;1.00
21193;DHT22;10754;51.106;7.164;2023-02-01T08:38:27;9.00;1.00
21193;DHT22;10754;51.106;7.164;2023-02-01T08:40:53;8.90;1.00
21193;DHT22;10754;51.106;7.164;2023-02-01T08:43:19;8.70;1.00
21193;DHT22;10754;51.106;7.164;2023-02-01T08:45:44;8.90;1.00
21193;DHT22;10754;51.106;7.164;2023-02-01T08:48:10;8.80;1.00
21193;DHT22;10754;51.106;7.164;2023-02-01T08:50:35;8.80;1.00
21193;DHT22;10754;51.106;7.164;2023-02-01T08:53:01;8.70;1.00
21193;DHT22;10754;51.106;7.164;2023-02-01T08:55:26;8.70;1.00
21193;DHT22;10754;51.106;7.164;2023-02-01T08:57:52;8.80;1.00
21193;DHT22;10754;51.106;7.164;2023-02-01T09:00:18;8.90;1.00
21193;DHT22;10754;51.106;7.164;2023-02-01T09:02:44;8.90;1.00
21193;DHT22;10754;51.106;7.164;2023-02-01T09:05:10;8.90;1.00
21193;DHT22;10754;51.106;7.164;2023-02-01T09:07:36;9.00;1.00
21193;DHT22;10754;51.106;7.164;2023-02-01T09:10:04;8.80;1.00
21193;DHT22;10754;51.106;7.164;2023-02-01T09:12:32;8.60;1.00
21193;DHT22;10754;51.106;7.164;2023-02-01T09:14:58;8.70;1.00
21193;DHT22;10754;51.106;7.164;2023-02-01T09:17:26;8.90;1.00
21193;DHT22;10754;51.106;7.164;2023-02-01T09:19:51;9.10;1.00
21193;DHT22;10754;51.106;7.164;2023-02-01T09:22:17;8.90;1.00
21193;DHT22;10754;51.106;7.164;2023-02-01T09:24:42;8.90;1.00
21193;DHT22;10754;51.106;7.164;2023-02-01T09:27:08;8.80;1.00
21193;DHT22;10754;51.106;7.164;2023-02-01T09:29:33;8.70;1.00
21193;DHT22;10754;51.106;7.164;2023-02-01T09:31:59;8.70;1.00
21193;DHT22;10754;51.106;7.164;2023-02-01T09:34:25;8.60;1.00
21193;DHT22;10754;51.106;7.164;2023-02-01T09:36:50;8.60;1.00
21193;DHT22;10754;51.106;7.164;2023-02-01T09:39:16;8.60;1.00
21193;DHT22;10754;51.106;7.164;2023-02-01T09:47:19;8.70;1.00
21193;DHT22;10754;51.106;7.164;2023-02-01T09:55:42;8.70;1.00
21193;DHT22;10754;51.106;7.164;2023-02-01T09:58:22;9.00;1.00
21193;DHT22;10754;51.106;7.164;2023-02-01T10:00:59;8.90;1.00
21193;DHT22;10754;51.106;7.164;2023-02-01T10:03:28;8.90;1.00
21193;DHT22;10754;51.106;7.164;2023-02-01T10:06:28;9.00;1.00
21193;DHT22;10754;51.106;7.164;2023-02-01T10:17:31;9.10;1.00
21193;DHT22;10754;51.106;7.164;2023-02-01T10:20:12;9.40;1.00
21193;DHT22;10754;51.106;7.164;2023-02-01T10:22:47;9.30;1.00
21193;DHT22;10754;51.106;7.164;2023-02-01T10:25:36;9.40;1.00
21193;DHT22;10754;51.106;7.164;2023-02-01T10:28:03;9.30;1.00
21193;DHT22;10754;51.106;7.164;2023-02-01T10:30:48;9.40;1.00
21193;DHT22;10754;51.106;7.164;2023-02-01T10:33:17;9.70;1.00
21193;DHT22;10754;51.106;7.164;2023-02-01T10:35:45;9.40;1.00
21193;DHT22;10754;51.106;7.164;2023-02-01T10:38:26;9.20;1.00
21193;DHT22;10754;51.106;7.164;2023-02-01T10:40:55;9.30;1.00
21193;DHT22;10754;51.106;7.164;2023-02-01T10:43:22;9.30;1.00
21193;DHT22;10754;51.106;7.164;2023-02-01T10:45:47;9.40;1.00
21193;DHT22;10754;51.106;7.164;2023-02-01T10:48:13;9.40;1.00
21193;DHT22;10754;51.106;7.164;2023-02-01T10:50:47;9.60;1.00
21193;DHT22;10754;51.106;7.164;2023-02-01T10:53:23;9.60;1.00
21193;DHT22;10754;51.106;7.164;2023-02-01T10:55:52;9.70;1.00
21193;DHT22;10754;51.106;7.164;2023-02-01T10:58:30;9.70;1.00
21193;DHT22;10754;51.106;7.164;2023-02-01T11:01:09;9.70;1.00
21193;DHT22;10754;51.106;7.164;2023-02-01T11:06:41;9.70;1.00
21193;DHT22;10754;51.106;7.164;2023-02-01T11:11:52;9.70;1.00
21193;DHT22;10754;51.106;7.164;2023-02-01T11:14:20;10.10;1.00
21193;DHT22;10754;51.106;7.164;2023-02-01T11:16:58;9.90;1.00
21193;DHT22;10754;51.106;7.164;2023-02-01T11:19:23;9.70;1.00
21193;DHT22;10754;51.106;7.164;2023-02-01T11:21:54;10.20;1.00
21193;DHT22;10754;51.106;7.164;2023-02-01T11:24:32;10.10;1.00
21193;DHT22;10754;51.106;7.164;2023-02-01T11:27:00;10.10;1.00
21193;DHT22;10754;51.106;7.164;2023-02-01T11:29:35;10.30;1.00
21193;DHT22;10754;51.106;7.164;2023-02-01T11:32:02;10.30;1.00
21193;DHT22;10754;51.106;7.164;2023-02-01T11:34:37;10.20;1.00
21193;DHT22;10754;51.106;7.164;2023-02-01T11:37:03;10.30;1.00
21193;DHT22;10754;51.106;7.164;2023-02-01T11:39:32;10.20;1.00
21193;DHT22;10754;51.106;7.164;2023-02-01T11:44:33;10.10;1.00
21193;DHT22;10754;51.106;7.164;2023-02-01T11:47:18;10.30;1.00
21193;DHT22;10754;51.106;7.164;2023-02-01T11:49:44;10.20;1.00
21193;DHT22;10754;51.106;7.164;2023-02-01T11:55:13;10.00;1.00
21193;DHT22;10754;51.106;7.164;2023-02-01T12:00:42;10.00;1.00
21193;DHT22;10754;51.106;7.164;2023-02-01T12:03:27;9.90;1.00
21193;DHT22;10754;51.106;7.164;2023-02-01T12:11:31;10.10;1.00
21193;DHT22;10754;51.106;7.164;2023-02-01T12:16:49;10.00;1.00
21193;DHT22;10754;51.106;7.164;2023-02-01T12:28:42;9.60;1.00
21193;DHT22;10754;51.106;7.164;2023-02-01T12:34:09;9.70;1.00
21193;DHT22;10754;51.106;7.164;2023-02-01T12:39:56;9.80;1.00
21193;DHT22;10754;51.106;7.164;2023-02-01T12:42:26;9.60;1.00
21193;DHT22;10754;51.106;7.164;2023-02-01T12:47:51;9.60;1.00
21193;DHT22;10754;51.106;7.164;2023-02-01T12:50:31;9.80;1.00
21193;DHT22;10754;51.106;7.164;2023-02-01T12:53:12;9.80;1.00
21193;DHT22;10754;51.106;7.164;2023-02-01T12:55:51;9.80;1.00
21193;DHT22;10754;51.106;7.164;2023-02-01T12:58:27;10.20;1.00
21193;DHT22;10754;51.106;7.164;2023-02-01T13:01:06;10.20;1.00
21193;DHT22;10754;51.106;7.164;2023-02-01T13:03:44;9.80;1.00
21193;DHT22;10754;51.106;7.164;2023-02-01T13:06:37;9.70;1.00
21193;DHT22;10754;51.106;7.164;2023-02-01T13:09:15;9.80;1.00
21193;DHT22;10754;51.106;7.164;2023-02-01T13:11:44;9.70;1.00
21193;DHT22;10754;51.106;7.164;2023-02-01T13:14:38;9.70;1.00
21193;DHT22;10754;51.106;7.164;2023-02-01T13:17:08;9.90;1.00
21193;DHT22;10754;51.106;7.164;2023-02-01T13:19:45;9.80;1.00
21193;DHT22;10754;51.106;7.164;2023-02-01T13:24:49;10.10;1.00
21193;DHT22;10754;51.106;7.164;2023-02-01T13:27:17;10.00;1.00
21193;DHT22;10754;51.106;7.164;2023-02-01T13:40:46;9.70;1.00
21193;DHT22;10754;51.106;7.164;2023-02-01T13:43:23;9.60;1.00
21193;DHT22;10754;51.106;7.164;2023-02-01T13:45:54;9.60;1.00
21193;DHT22;10754;51.106;7.164;2023-02-01T13:51:04;9.90;1.00
21193;DHT22;10754;51.106;7.164;2023-02-01T13:53:35;9.90;1.00
21193;DHT22;10754;51.106;7.164;2023-02-01T13:56:19;9.90;1.00
21193;DHT22;10754;51.106;7.164;2023-02-01T13:58:47;9.80;1.00
21193;DHT22;10754;51.106;7.164;2023-02-01T14:03:58;10.00;1.00
21193;DHT22;10754;51.106;7.164;2023-02-01T14:11:34;9.70;1.00
21193;DHT22;10754;51.106;7.164;2023-02-01T14:19:29;9.60;1.00
21193;DHT22;10754;51.106;7.164;2023-02-01T14:22:46;9.60;1.00
21193;DHT22;10754;51.106;7.164;2023-02-01T14:24:57;9.70;1.00
21193;DHT22;10754;51.106;7.164;2023-02-01T14:27:25;9.70;1.00
21193;DHT22;10754;51.106;7.164;2023-02-01T14:30:05;9.60;1.00
21193;DHT22;10754;51.106;7.164;2023-02-01T14:32:37;9.70;1.00
21193;DHT22;10754;51.106;7.164;2023-02-01T14:35:07;9.90;1.00
21193;DHT22;10754;51.106;7.164;2023-02-01T14:37:38;9.80;1.00
21193;DHT22;10754;51.106;7.164;2023-02-01T14:40:06;9.60;1.00
21193;DHT22;10754;51.106;7.164;2023-02-01T14:50:26;9.60;1.00
21193;DHT22;10754;51.106;7.164;2023-02-01T14:55:35;9.50;1.00
21193;DHT22;10754;51.106;7.164;2023-02-01T14:58:05;9.60;1.00
21193;DHT22;10754;51.106;7.164;2023-02-01T15:00:31;9.60;1.00
21193;DHT22;10754;51.106;7.164;2023-02-01T15:05:41;9.70;1.00
21193;DHT22;10754;51.106;7.164;2023-02-01T15:08:17;9.50;1.00
21193;DHT22;10754;51.106;7.164;2023-02-01T15:10:46;9.70;1.00
21193;DHT22;10754;51.106;7.164;2023-02-01T15:13:20;9.80;1.00
21193;DHT22;10754;51.106;7.164;2023-02-01T15:16:10;9.90;1.00
21193;DHT22;10754;51.106;7.164;2023-02-01T15:18:36;9.90;1.00
21193;DHT22;10754;51.106;7.164;2023-02-01T15:21:03;9.90;1.00
21193;DHT22;10754;51.106;7.164;2023-02-01T15:23:30;9.80;1.00
21193;DHT22;10754;51.106;7.164;2023-02-01T15:25:56;9.40;1.00
21193;DHT22;10754;51.106;7.164;2023-02-01T15:28:22;9.70;1.00
21193;DHT22;10754;51.106;7.164;2023-02-01T15:30:59;9.80;1.00
21193;DHT22;10754;51.106;7.164;2023-02-01T15:33:26;9.90;1.00
21193;DHT22;10754;51.106;7.164;2023-02-01T15:36:08;9.90;1.00
21193;DHT22;10754;51.106;7.164;2023-02-01T15:38:36;9.80;1.00
21193;DHT22;10754;51.106;7.164;2023-02-01T15:43:43;9.70;1.00
21193;DHT22;10754;51.106;7.164;2023-02-01T15:46:15;9.70;1.00
21193;DHT22;10754;51.106;7.164;2023-02-01T15:48:48;9.80;1.00
21193;DHT22;10754;51.106;7.164;2023-02-01T15:51:17;9.80;1.00
21193;DHT22;10754;51.106;7.164;2023-02-01T15:53:46;9.80;1.00
21193;DHT22;10754;51.106;7.164;2023-02-01T15:56:12;9.80;1.00
21193;DHT22;10754;51.106;7.164;2023-02-01T15:58:42;9.70;1.00
21193;DHT22;10754;51.106;7.164;2023-02-01T16:01:12;9.80;1.00
21193;DHT22;10754;51.106;7.164;2023-02-01T16:03:45;9.90;1.00
21193;DHT22;10754;51.106;7.164;2023-02-01T16:06:28;9.80;1.00
21193;DHT22;10754;51.106;7.164;2023-02-01T16:11:26;9.60;1.00
21193;DHT22;10754;51.106;7.164;2023-02-01T16:13:53;9.70;1.00
21193;DHT22;10754;51.106;7.164;2023-02-01T16:16:19;9.70;1.00
21193;DHT22;10754;51.106;7.164;2023-02-01T16:18:44;9.70;1.00
21193;DHT22;10754;51.106;7.164;2023-02-01T16:21:10;9.70;1.00
21193;DHT22;10754;51.106;7.164;2023-02-01T16:23:36;9.80;1.00
21193;DHT22;10754;51.106;7.164;2023-02-01T16:26:03;9.80;1.00
21193;DHT22;10754;51.106;7.164;2023-02-01T16:28:29;9.70;1.00
21193;DHT22;10754;51.106;7.164;2023-02-01T16:30:55;9.80;1.00
21193;DHT22;10754;51.106;7.164;2023-02-01T16:33:21;9.70;1.00
21193;DHT22;10754;51.106;7.164;2023-02-01T16:35:48;10.00;1.00
21193;DHT22;10754;51.106;7.164;2023-02-01T16:38:16;9.90;1.00
21193;DHT22;10754;51.106;7.164;2023-02-01T16:40:45;9.80;1.00
21193;DHT22;10754;51.106;7.164;2023-02-01T16:43:17;9.90;1.00
21193;DHT22;10754;51.106;7.164;2023-02-01T16:45:44;9.90;1.00
21193;DHT22;10754;51.106;7.164;2023-02-01T16:48:26;9.80;1.00
21193;DHT22;10754;51.106;7.164;2023-02-01T16:51:04;9.90;1.00
21193;DHT22;10754;51.106;7.164;2023-02-01T16:53:33;10.00;1.00
21193;DHT22;10754;51.106;7.164;2023-02-01T16:55:58;10.10;1.00
21193;DHT22;10754;51.106;7.164;2023-02-01T16:58:25;10.00;1.00
21193;DHT22;10754;51.106;7.164;2023-02-01T17:00:52;9.80;1.00
21193;DHT22;10754;51.106;7.164;2023-02-01T17:03:19;9.70;1.00
21193;DHT22;10754;51.106;7.164;2023-02-01T17:05:50;9.80;1.00
21193;DHT22;10754;51.106;7.164;2023-02-01T17:08:21;10.10;1.00
21193;DHT22;10754;51.106;7.164;2023-02-01T17:10:50;10.20;1.00
21193;DHT22;10754;51.106;7.164;2023-02-01T17:13:16;10.00;1.00
21193;DHT22;10754;51.106;7.164;2023-02-01T17:15:52;10.00;1.00
21193;DHT22;10754;51.106;7.164;2023-02-01T17:18:18;10.00;1.00
21193;DHT22;10754;51.106;7.164;2023-02-01T17:20:45;9.90;1.00
21193;DHT22;10754;51.106;7.164;2023-02-01T17:23:13;9.90;1.00
21193;DHT22;10754;51.106;7.164;2023-02-01T17:25:39;10.00;1.00
21193;DHT22;10754;51.106;7.164;2023-02-01T17:28:04;10.00;1.00
21193;DHT22;10754;51.106;7.164;2023-02-01T17:30:31;9.90;1.00
21193;DHT22;10754;51.106;7.164;2023-02-01T17:32:56;9.80;1.00
21193;DHT22;10754;51.106;7.164;2023-02-01T17:35:24;9.70;1.00
21193;DHT22;10754;51.106;7.164;2023-02-01T17:37:51;9.70;1.00
21193;DHT22;10754;51.106;7.164;2023-02-01T17:40:16;9.80;1.00
21193;DHT22;10754;51.106;7.164;2023-02-01T17:42:42;9.80;1.00
21193;DHT22;10754;51.106;7.164;2023-02-01T17:45:22;9.70;1.00
21193;DHT22;10754;51.106;7.164;2023-02-01T17:47:48;9.70;1.00
21193;DHT22;10754;51.106;7.164;2023-02-01T17:50:14;9.80;1.00
21193;DHT22;10754;51.106;7.164;2023-02-01T17:52:39;10.00;1.00
21193;DHT22;10754;51.106;7.164;2023-02-01T17:55:16;10.00;1.00
21193;DHT22;10754;51.106;7.164;2023-02-01T17:57:42;10.00;1.00
21193;DHT22;10754;51.106;7.164;2023-02-01T18:00:09;9.80;1.00
21193;DHT22;10754;51.106;7.164;2023-02-01T18:02:34;10.00;1.00
21193;DHT22;10754;51.106;7.164;2023-02-01T18:05:00;9.90;1.00
21193;DHT22;10754;51.106;7.164;2023-02-01T18:07:25;9.90;1.00
21193;DHT22;10754;51.106;7.164;2023-02-01T18:09:51;9.90;1.00
21193;DHT22;10754;51.106;7.164;2023-02-01T18:12:21;9.90;1.00
21193;DHT22;10754;51.106;7.164;2023-02-01T18:14:47;10.00;1.00
21193;DHT22;10754;51.106;7.164;2023-02-01T18:17:13;9.90;1.00
21193;DHT22;10754;51.106;7.164;2023-02-01T18:19:39;10.00;1.00
21193;DHT22;10754;51.106;7.164;2023-02-01T18:22:05;9.90;1.00
21193;DHT22;10754;51.106;7.164;2023-02-01T18:24:30;10.00;1.00
21193;DHT22;10754;51.106;7.164;2023-02-01T18:26:58;10.00;1.00
21193;DHT22;10754;51.106;7.164;2023-02-01T18:29:24;10.10;1.00
21193;DHT22;10754;51.106;7.164;2023-02-01T18:31:49;10.00;1.00